createdAt,value
2022-10-31T00:01:29.080Z,74.42
2022-10-31T00:04:13.357Z,75.00
2022-10-31T00:07:02.089Z,75.72
2022-10-31T00:09:44.373Z,75.16
2022-10-31T00:12:33.007Z,74.80
2022-10-31T00:15:16.362Z,74.50
2022-10-31T00:18:05.089Z,74.84
2022-10-31T00:20:54.993Z,75.10
2022-10-31T00:23:37.465Z,75.24
2022-10-31T00:26:27.072Z,75.05
2022-10-31T00:29:15.358Z,75.25
2022-10-31T00:32:05.012Z,74.78
2022-10-31T00:34:47.406Z,75.00
2022-10-31T00:37:36.139Z,74.78
2022-10-31T00:40:19.361Z,75.64
2022-10-31T00:43:09.164Z,76.05
2022-10-31T00:45:52.379Z,75.29
2022-10-31T00:48:41.054Z,75.43
2022-10-31T00:51:29.991Z,75.69
2022-10-31T00:54:19.147Z,75.40
2022-10-31T00:57:01.357Z,75.59
2022-10-31T00:59:50.060Z,74.79
2022-10-31T01:02:39.142Z,75.45
2022-10-31T01:05:29.134Z,75.46
2022-10-31T01:08:11.335Z,75.50
2022-10-31T01:11:14.108Z,75.46
2022-10-31T01:13:59.501Z,75.38
2022-10-31T01:16:48.992Z,75.53
2022-10-31T01:19:38.063Z,75.29
2022-10-31T01:22:20.287Z,75.65
2022-10-31T01:25:09.249Z,75.28
2022-10-31T01:27:51.259Z,75.77
2022-10-31T01:30:39.979Z,75.53
2022-10-31T01:33:34.907Z,75.63
2022-10-31T01:36:38.081Z,75.16
2022-10-31T01:39:23.359Z,75.74
2022-10-31T01:42:12.012Z,75.45
2022-10-31T01:45:29.990Z,75.06
2022-10-31T01:48:24.374Z,74.63
2022-10-31T01:51:07.095Z,74.61
2022-10-31T01:53:56.817Z,74.41
2022-10-31T01:56:43.074Z,74.93
2022-10-31T01:59:35.971Z,75.18
2022-10-31T02:02:25.132Z,74.16
2022-10-31T02:05:11.615Z,74.28
2022-10-31T02:08:18.036Z,73.61
2022-10-31T02:11:08.985Z,73.80
2022-10-31T02:13:51.339Z,74.25
2022-10-31T02:16:40.066Z,76.52
2022-10-31T02:19:31.339Z,76.07
2022-10-31T02:22:38.007Z,76.40
2022-10-31T02:26:05.125Z,74.93
2022-10-31T02:29:09.008Z,75.27
2022-10-31T02:32:22.083Z,75.06
2022-10-31T02:35:07.334Z,74.81
2022-10-31T02:38:12.466Z,74.24
2022-10-31T02:41:41.347Z,73.39
2022-10-31T02:44:47.074Z,73.37
2022-10-31T02:47:43.089Z,70.80
2022-10-31T02:50:36.382Z,71.87
2022-10-31T02:53:26.104Z,69.69
2022-10-31T02:56:20.950Z,69.72
2022-10-31T02:59:13.336Z,68.64
2022-10-31T03:02:14.147Z,70.86
2022-10-31T03:05:13.102Z,67.61
2022-10-31T03:08:16.370Z,68.62
2022-10-31T03:11:09.047Z,65.89
2022-10-31T03:14:10.090Z,68.03
2022-10-31T03:17:04.969Z,66.78
2022-10-31T03:19:57.343Z,66.15
2022-10-31T03:22:51.984Z,65.87
2022-10-31T03:25:35.366Z,66.47
2022-10-31T03:28:26.057Z,64.94
2022-10-31T03:31:12.341Z,67.17
2022-10-31T03:34:04.956Z,64.41
2022-10-31T03:36:50.333Z,64.26
2022-10-31T03:39:39.966Z,63.16
2022-10-31T03:42:30.333Z,64.40
2022-10-31T03:45:32.071Z,62.93
2022-10-31T03:48:15.322Z,60.89
2022-10-31T03:51:32.053Z,61.39
2022-10-31T03:54:46.418Z,65.51
2022-10-31T03:57:57.152Z,63.02
2022-10-31T04:00:42.345Z,58.17
2022-10-31T04:03:37.968Z,61.05
2022-10-31T04:06:25.379Z,59.18
2022-10-31T04:09:18.106Z,55.76
2022-10-31T04:12:05.385Z,56.37
2022-10-31T04:15:16.053Z,53.95
2022-10-31T04:18:03.576Z,56.62
2022-10-31T04:20:53.074Z,56.94
2022-10-31T04:23:36.558Z,54.70
2022-10-31T04:26:40.067Z,57.04
2022-10-31T04:29:22.390Z,54.52
2022-10-31T04:32:17.102Z,53.23
2022-10-31T04:35:07.351Z,52.90
2022-10-31T04:37:50.127Z,56.43
2022-10-31T04:40:32.473Z,53.86
2022-10-31T04:43:24.093Z,56.38
2022-10-31T04:46:08.488Z,54.42
2022-10-31T04:48:56.951Z,52.52
2022-10-31T04:51:46.050Z,52.59
2022-10-31T04:54:28.333Z,51.08
2022-10-31T04:57:17.069Z,48.89
2022-10-31T04:59:59.367Z,47.04
2022-10-31T05:02:56.066Z,49.45
2022-10-31T05:05:39.540Z,49.61
2022-10-31T05:08:29.049Z,48.57
2022-10-31T05:11:15.145Z,53.05
2022-10-31T05:14:04.059Z,48.88
2022-10-31T05:17:06.492Z,47.68
2022-10-31T05:20:22.066Z,47.46
2022-10-31T05:23:36.349Z,49.20
2022-10-31T05:26:24.961Z,50.09
2022-10-31T05:29:08.393Z,48.53
2022-10-31T05:31:57.064Z,47.86
2022-10-31T05:35:05.395Z,48.41
2022-10-31T05:38:18.049Z,50.39
2022-10-31T05:41:04.296Z,47.61
2022-10-31T05:43:55.098Z,45.47
2022-10-31T05:46:39.344Z,47.47
2022-10-31T05:49:36.970Z,49.74
2022-10-31T05:52:38.626Z,46.43
2022-10-31T05:55:41.068Z,45.12
2022-10-31T05:58:35.123Z,45.62
2022-10-31T06:01:17.429Z,44.89
2022-10-31T06:04:06.115Z,44.34
2022-10-31T06:06:54.955Z,45.36
2022-10-31T06:09:44.067Z,45.24
2022-10-31T06:12:36.059Z,43.86
2022-10-31T06:15:39.351Z,43.08
2022-10-31T06:18:28.056Z,44.13
2022-10-31T06:21:13.689Z,43.91
2022-10-31T06:24:06.975Z,44.78
2022-10-31T06:27:11.045Z,44.22
2022-10-31T06:29:53.407Z,47.64
2022-10-31T06:32:51.032Z,44.16
2022-10-31T06:35:39.974Z,44.81
2022-10-31T06:38:28.784Z,44.93
2022-10-31T06:41:14.986Z,45.87
2022-10-31T06:43:58.266Z,47.00
2022-10-31T06:47:06.979Z,44.88
2022-10-31T06:50:12.320Z,44.61
2022-10-31T06:53:14.054Z,46.22
2022-10-31T06:55:58.334Z,42.22
2022-10-31T06:58:52.047Z,41.65
2022-10-31T07:01:54.370Z,42.01
2022-10-31T07:04:43.074Z,45.62
2022-10-31T07:07:34.080Z,42.07
2022-10-31T07:10:16.459Z,44.77
2022-10-31T07:13:16.056Z,43.63
2022-10-31T07:16:04.353Z,42.50
2022-10-31T07:18:52.973Z,45.14
2022-10-31T07:21:44.071Z,41.73
2022-10-31T07:24:33.334Z,44.88
2022-10-31T07:27:41.639Z,43.38
2022-10-31T07:30:26.291Z,41.27
2022-10-31T07:33:14.983Z,40.63
2022-10-31T07:36:22.038Z,40.47
2022-10-31T07:39:10.331Z,42.17
2022-10-31T07:41:58.998Z,40.01
2022-10-31T07:44:42.334Z,39.21
2022-10-31T07:47:53.983Z,42.50
2022-10-31T07:51:03.129Z,40.38
2022-10-31T07:54:21.249Z,39.10
2022-10-31T07:57:10.022Z,39.49
2022-10-31T07:59:58.972Z,41.12
2022-10-31T08:02:57.214Z,40.25
2022-10-31T08:06:14.968Z,37.26
2022-10-31T08:09:06.371Z,39.40
2022-10-31T08:11:57.341Z,38.63
2022-10-31T08:14:48.085Z,40.56
2022-10-31T08:17:31.635Z,38.11
2022-10-31T08:20:21.013Z,37.27
2022-10-31T08:23:07.241Z,39.82
2022-10-31T08:25:57.953Z,38.43
2022-10-31T08:28:40.227Z,40.10
2022-10-31T08:31:33.452Z,39.57
2022-10-31T08:34:47.955Z,39.74
2022-10-31T08:38:03.319Z,40.10
2022-10-31T08:40:47.332Z,37.65
2022-10-31T08:43:35.947Z,36.16
2022-10-31T08:46:25.026Z,37.67
2022-10-31T08:49:14.442Z,37.61
2022-10-31T08:51:59.302Z,37.21
2022-10-31T08:54:52.953Z,38.23
2022-10-31T08:58:11.357Z,36.87
2022-10-31T09:01:08.138Z,37.28
2022-10-31T09:03:52.317Z,35.73
2022-10-31T09:06:50.304Z,37.45
2022-10-31T09:09:44.104Z,36.87
2022-10-31T09:12:28.349Z,36.42
2022-10-31T09:15:35.068Z,37.66
2022-10-31T09:18:30.311Z,40.27
2022-10-31T09:21:18.957Z,37.72
2022-10-31T09:24:08.344Z,38.26
2022-10-31T09:26:51.966Z,37.86
2022-10-31T09:29:37.254Z,37.92
2022-10-31T09:32:28.969Z,38.63
2022-10-31T09:35:20.461Z,39.67
2022-10-31T09:38:08.052Z,41.22
2022-10-31T09:41:29.410Z,38.96
2022-10-31T09:44:27.041Z,39.25
2022-10-31T09:47:31.085Z,39.84
2022-10-31T09:50:52.168Z,38.95
2022-10-31T09:54:15.946Z,39.59
2022-10-31T09:56:59.308Z,38.10
2022-10-31T09:59:51.255Z,38.75
2022-10-31T10:02:59.372Z,41.57
2022-10-31T10:06:01.094Z,38.48
2022-10-31T10:09:05.292Z,41.26
2022-10-31T10:12:55.041Z,40.99
2022-10-31T10:15:52.186Z,41.20
2022-10-31T10:19:02.052Z,42.75
2022-10-31T10:22:17.059Z,42.47
2022-10-31T10:25:20.320Z,43.21
2022-10-31T10:28:16.934Z,44.53
2022-10-31T10:31:08.980Z,44.52
2022-10-31T10:34:00.310Z,44.46
2022-10-31T10:36:47.064Z,45.34
2022-10-31T10:39:58.317Z,44.71
2022-10-31T10:42:58.973Z,45.65
2022-10-31T10:45:59.985Z,46.78
2022-10-31T10:48:58.058Z,46.92
2022-10-31T10:52:02.757Z,46.95
2022-10-31T10:55:07.107Z,46.65
2022-10-31T10:58:12.327Z,46.01
2022-10-31T11:00:56.155Z,47.68
2022-10-31T11:03:45.051Z,48.14
2022-10-31T11:06:31.329Z,47.69
2022-10-31T11:09:20.050Z,48.40
2022-10-31T11:12:03.298Z,47.47
2022-10-31T11:15:02.976Z,48.89
2022-10-31T11:17:56.293Z,50.10
2022-10-31T11:20:45.322Z,50.54
2022-10-31T11:23:28.970Z,50.80
2022-10-31T11:26:30.330Z,52.57
2022-10-31T11:29:16.950Z,51.97
2022-10-31T11:32:02.626Z,52.30
2022-10-31T11:34:58.963Z,52.59
2022-10-31T11:37:52.924Z,53.07
2022-10-31T11:40:42.949Z,54.46
2022-10-31T11:43:32.948Z,55.21
2022-10-31T11:46:27.356Z,54.39
2022-10-31T11:49:25.030Z,54.31
2022-10-31T11:52:17.944Z,53.97
2022-10-31T11:55:23.036Z,55.33
2022-10-31T11:58:06.332Z,56.11
2022-10-31T12:00:59.967Z,55.68
2022-10-31T12:04:11.327Z,56.04
2022-10-31T12:07:02.027Z,56.51
2022-10-31T12:09:46.353Z,56.18
2022-10-31T12:12:51.951Z,56.90
2022-10-31T12:15:45.028Z,56.57
2022-10-31T12:19:12.946Z,56.19
2022-10-31T12:22:16.930Z,56.35
2022-10-31T12:25:27.303Z,56.28
2022-10-31T12:28:23.947Z,56.69
2022-10-31T12:31:25.660Z,56.76
2022-10-31T12:34:18.074Z,57.01
2022-10-31T12:37:26.334Z,56.72
2022-10-31T12:40:28.037Z,58.16
2022-10-31T12:43:43.293Z,57.74
2022-10-31T12:46:53.950Z,58.13
2022-10-31T12:49:53.304Z,58.12
2022-10-31T12:53:03.276Z,58.42
2022-10-31T12:56:00.730Z,58.70
2022-10-31T12:58:55.948Z,58.38
2022-10-31T13:02:13.018Z,59.14
2022-10-31T13:05:13.872Z,58.70
2022-10-31T13:08:11.937Z,58.90
2022-10-31T13:11:03.472Z,59.38
2022-10-31T13:14:16.045Z,59.38
2022-10-31T13:16:59.506Z,59.44
2022-10-31T13:19:52.038Z,60.43
2022-10-31T13:22:48.032Z,60.64
2022-10-31T13:25:47.942Z,61.01
2022-10-31T13:29:00.953Z,61.00
2022-10-31T13:31:51.308Z,61.38
2022-10-31T13:35:05.023Z,61.40
2022-10-31T13:37:55.021Z,62.27
2022-10-31T13:41:09.978Z,62.07
2022-10-31T13:44:01.391Z,61.83
2022-10-31T13:46:52.027Z,61.83
2022-10-31T13:49:40.520Z,61.82
2022-10-31T13:52:34.011Z,61.44
2022-10-31T13:56:00.029Z,62.06
2022-10-31T13:59:05.709Z,62.77
2022-10-31T14:02:04.050Z,63.32
2022-10-31T14:05:03.294Z,63.79
2022-10-31T14:08:00.284Z,64.02
2022-10-31T14:10:50.767Z,63.52
2022-10-31T14:13:46.039Z,63.62
2022-10-31T14:16:34.215Z,64.19
2022-10-31T14:19:31.022Z,64.01
2022-10-31T14:22:24.838Z,64.17
2022-10-31T14:25:14.028Z,64.48
2022-10-31T14:27:57.056Z,64.89
2022-10-31T14:30:47.055Z,64.45
2022-10-31T14:33:46.882Z,65.16
2022-10-31T14:37:05.064Z,65.00
2022-10-31T14:40:05.391Z,65.06
2022-10-31T14:43:34.914Z,65.34
2022-10-31T14:46:35.344Z,66.05
2022-10-31T14:49:44.023Z,65.46
2022-10-31T14:52:28.293Z,65.53
2022-10-31T14:55:22.119Z,65.85
2022-10-31T14:58:19.038Z,65.74
2022-10-31T15:01:01.800Z,65.87
2022-10-31T15:04:22.274Z,65.88
2022-10-31T15:07:37.484Z,66.26
2022-10-31T15:10:41.020Z,65.87
2022-10-31T15:13:24.571Z,66.20
2022-10-31T15:16:13.087Z,66.26
2022-10-31T15:19:05.553Z,66.65
2022-10-31T15:22:00.039Z,66.29
2022-10-31T15:24:42.484Z,66.42
2022-10-31T15:27:34.032Z,66.18
2022-10-31T15:30:29.953Z,65.54
2022-10-31T15:33:24.664Z,65.01
2022-10-31T15:36:15.068Z,66.64
2022-10-31T15:39:06.016Z,65.87
2022-10-31T15:42:03.410Z,65.76
2022-10-31T15:44:50.215Z,65.14
2022-10-31T15:47:41.003Z,64.80
2022-10-31T15:50:43.364Z,64.81
2022-10-31T15:53:57.471Z,66.01
2022-10-31T15:56:41.285Z,65.20
2022-10-31T15:59:35.016Z,64.36
2022-10-31T16:02:20.433Z,64.83
2022-10-31T16:05:11.016Z,64.87
2022-10-31T16:08:01.370Z,65.63
2022-10-31T16:10:50.016Z,65.64
2022-10-31T16:13:50.327Z,65.84
2022-10-31T16:16:42.025Z,65.88
2022-10-31T16:19:43.300Z,66.12
2022-10-31T16:22:37.956Z,65.67
2022-10-31T16:25:24.275Z,65.10
2022-10-31T16:28:24.552Z,65.12
2022-10-31T16:31:15.998Z,64.96
2022-10-31T16:34:26.636Z,64.45
2022-10-31T16:37:11.294Z,64.96
2022-10-31T16:40:00.109Z,65.48
2022-10-31T16:42:42.383Z,64.22
2022-10-31T16:45:33.031Z,63.95
2022-10-31T16:48:21.306Z,64.79
2022-10-31T16:51:09.978Z,64.17
2022-10-31T16:54:00.094Z,64.89
2022-10-31T16:56:50.298Z,64.59
2022-10-31T16:59:33.037Z,64.05
2022-10-31T17:02:24.604Z,65.40
2022-10-31T17:05:07.014Z,65.96
2022-10-31T17:07:50.361Z,65.53
2022-10-31T17:10:40.084Z,66.37
2022-10-31T17:13:37.376Z,65.53
2022-10-31T17:16:22.966Z,66.24
2022-10-31T17:19:05.661Z,65.97
2022-10-31T17:21:56.362Z,66.28
2022-10-31T17:24:38.225Z,65.49
2022-10-31T17:27:27.160Z,66.63
2022-10-31T17:30:11.433Z,66.00
2022-10-31T17:33:01.256Z,64.72
2022-10-31T17:35:51.609Z,65.84
2022-10-31T17:38:34.035Z,66.56
2022-10-31T17:41:23.100Z,66.54
2022-10-31T17:44:07.514Z,65.72
2022-10-31T17:46:56.004Z,65.78
2022-10-31T17:49:44.943Z,65.96
2022-10-31T17:52:34.082Z,65.17
2022-10-31T17:55:17.315Z,65.23
2022-10-31T17:58:06.075Z,65.06
2022-10-31T18:00:51.359Z,65.07
2022-10-31T18:03:41.068Z,65.69
2022-10-31T18:06:23.341Z,66.58
2022-10-31T18:09:14.904Z,66.34
2022-10-31T18:11:57.325Z,66.80
2022-10-31T18:14:48.589Z,65.82
2022-10-31T18:17:31.329Z,66.81
2022-10-31T18:20:21.065Z,67.37
2022-10-31T18:23:03.426Z,66.86
2022-10-31T18:25:52.011Z,67.08
2022-10-31T18:28:40.903Z,67.14
2022-10-31T18:31:30.365Z,67.81
2022-10-31T18:34:18.946Z,67.52
2022-10-31T18:37:01.301Z,67.89
2022-10-31T18:39:49.920Z,67.61
2022-10-31T18:42:34.830Z,67.33
2022-10-31T18:45:33.907Z,67.48
2022-10-31T18:48:26.262Z,67.28
2022-10-31T18:51:16.961Z,67.64
2022-10-31T18:54:01.381Z,67.19
2022-10-31T18:56:49.995Z,67.89
2022-10-31T18:59:32.312Z,67.93
2022-10-31T19:02:24.983Z,67.24
2022-10-31T19:05:07.650Z,67.68
2022-10-31T19:07:57.063Z,67.44
2022-10-31T19:10:42.351Z,67.79
2022-10-31T19:13:31.004Z,67.66
2022-10-31T19:16:22.348Z,66.88
2022-10-31T19:19:11.063Z,67.77
2022-10-31T19:21:53.351Z,68.00
2022-10-31T19:24:42.087Z,67.60
2022-10-31T19:27:24.438Z,67.55
2022-10-31T19:30:14.406Z,67.31
2022-10-31T19:32:57.046Z,67.89
2022-10-31T19:35:46.102Z,67.55
2022-10-31T19:38:28.308Z,67.41
2022-10-31T19:41:22.055Z,67.63
2022-10-31T19:44:14.944Z,67.35
2022-10-31T19:47:04.024Z,67.50
2022-10-31T19:49:46.322Z,67.46
2022-10-31T19:52:34.929Z,67.58
2022-10-31T19:55:17.305Z,67.70
2022-10-31T19:58:06.065Z,67.18
2022-10-31T20:00:48.381Z,66.89
2022-10-31T20:03:37.078Z,67.90
2022-10-31T20:06:34.327Z,67.30
2022-10-31T20:09:22.956Z,67.90
2022-10-31T20:12:05.749Z,67.52
2022-10-31T20:14:57.027Z,67.91
2022-10-31T20:17:45.910Z,66.86
2022-10-31T20:20:34.982Z,68.04
2022-10-31T20:23:17.432Z,67.17
2022-10-31T20:26:17.951Z,67.28
2022-10-31T20:29:07.026Z,67.53
2022-10-31T20:31:55.996Z,66.76
2022-10-31T20:34:44.948Z,67.24
2022-10-31T20:37:33.319Z,66.51
2022-10-31T20:40:15.994Z,66.32
2022-10-31T20:43:04.283Z,66.51
2022-10-31T20:45:47.039Z,66.55
2022-10-31T20:48:29.936Z,66.40
2022-10-31T20:51:22.026Z,66.00
2022-10-31T20:54:10.960Z,65.86
2022-10-31T20:56:59.994Z,66.53
2022-10-31T20:59:48.281Z,66.29
2022-10-31T21:02:31.009Z,66.79
2022-10-31T21:05:21.311Z,66.40
2022-10-31T21:08:03.003Z,65.95
2022-10-31T21:10:51.300Z,66.69
2022-10-31T21:13:36.464Z,66.70
2022-10-31T21:16:36.962Z,66.78
2022-10-31T21:19:20.998Z,66.87
2022-10-31T21:22:10.335Z,65.69
2022-10-31T21:24:51.893Z,65.36
2022-10-31T21:27:40.928Z,64.30
2022-10-31T21:30:23.329Z,63.73
2022-10-31T21:33:11.926Z,64.15
2022-10-31T21:36:00.316Z,64.59
2022-10-31T21:38:44.393Z,64.39
2022-10-31T21:41:33.205Z,63.77
2022-10-31T21:44:21.904Z,64.39
2022-10-31T21:47:10.295Z,64.94
2022-10-31T21:49:52.916Z,64.57
2022-10-31T21:52:41.283Z,65.26
2022-10-31T21:55:24.044Z,65.21
2022-10-31T21:58:06.205Z,64.89
2022-10-31T22:00:54.968Z,65.55
2022-10-31T22:03:48.279Z,65.50
2022-10-31T22:06:30.936Z,65.87
2022-10-31T22:09:24.312Z,65.77
2022-10-31T22:12:08.012Z,65.41
2022-10-31T22:14:56.926Z,64.97
2022-10-31T22:17:46.759Z,65.08
2022-10-31T22:20:29.179Z,65.52
2022-10-31T22:23:17.983Z,65.71
2022-10-31T22:26:15.393Z,65.36
2022-10-31T22:29:09.977Z,66.87
2022-10-31T22:31:58.555Z,67.19
2022-10-31T22:34:50.092Z,67.25
2022-10-31T22:37:38.303Z,66.51
2022-10-31T22:40:20.990Z,66.60
2022-10-31T22:43:03.403Z,65.53
2022-10-31T22:45:51.913Z,65.19
2022-10-31T22:48:46.985Z,65.17
2022-10-31T22:51:51.290Z,65.19
2022-10-31T22:54:39.912Z,65.23
2022-10-31T22:57:22.255Z,65.34
2022-10-31T23:00:12.081Z,64.92
2022-10-31T23:02:54.267Z,65.42
2022-10-31T23:05:43.017Z,65.59
2022-10-31T23:08:25.473Z,66.43
2022-10-31T23:11:27.956Z,66.92
2022-10-31T23:14:21.161Z,66.80
2022-10-31T23:17:03.234Z,67.36
2022-10-31T23:19:51.928Z,66.48
2022-10-31T23:22:34.193Z,66.31
2022-10-31T23:25:40.931Z,66.52
2022-10-31T23:28:23.229Z,66.88
2022-10-31T23:31:11.998Z,67.86
2022-10-31T23:34:06.833Z,67.68
2022-10-31T23:37:02.969Z,67.77
2022-10-31T23:39:52.276Z,69.28
2022-10-31T23:42:35.878Z,70.16
2022-10-31T23:45:25.020Z,70.67
2022-10-31T23:48:07.249Z,69.80
2022-10-31T23:50:55.993Z,68.80
2022-10-31T23:53:45.018Z,69.00
2022-10-31T23:56:34.037Z,68.97
2022-10-31T23:59:16.283Z,68.36
